createdAt,value
2018-11-11T00:00:59.759Z,0
2018-11-11T00:02:09.443Z,0
2018-11-11T00:03:18.871Z,0
2018-11-11T00:04:28.581Z,0
2018-11-11T00:05:38.272Z,0
2018-11-11T00:06:47.955Z,0
2018-11-11T00:07:57.907Z,0
2018-11-11T00:09:07.340Z,0
2018-11-11T00:10:16.794Z,0
2018-11-11T00:11:26.488Z,0
2018-11-11T00:12:36.195Z,0
2018-11-11T00:13:46.129Z,0
2018-11-11T00:14:55.566Z,0
2018-11-11T00:16:05.257Z,0
2018-11-11T00:17:15.197Z,0
2018-11-11T00:18:24.884Z,0
2018-11-11T00:19:34.343Z,0
2018-11-11T00:20:44.289Z,0
2018-11-11T00:21:54.053Z,0
2018-11-11T00:23:04.065Z,0
2018-11-11T00:24:14.002Z,0
2018-11-11T00:25:23.715Z,0
2018-11-11T00:26:33.135Z,0
2018-11-11T00:27:42.584Z,0
2018-11-11T00:28:52.637Z,0
2018-11-11T00:30:02.598Z,0
2018-11-11T00:31:12.529Z,0
2018-11-11T00:32:22.245Z,0
2018-11-11T00:33:32.220Z,0
2018-11-11T00:34:41.909Z,0
2018-11-11T00:35:51.629Z,0
2018-11-11T00:37:01.312Z,0
2018-11-11T00:38:10.993Z,0
2018-11-11T00:39:20.954Z,0
2018-11-11T00:40:30.667Z,0
2018-11-11T00:41:40.621Z,0
2018-11-11T00:42:50.564Z,0
2018-11-11T00:44:00.260Z,0
2018-11-11T00:45:09.951Z,0
2018-11-11T00:46:19.909Z,0
2018-11-11T00:47:29.857Z,0
2018-11-11T00:48:39.290Z,0
2018-11-11T00:49:49.250Z,0
2018-11-11T00:50:58.940Z,0
2018-11-11T00:52:08.627Z,0
2018-11-11T00:53:18.344Z,0
2018-11-11T00:54:28.058Z,0
2018-11-11T00:55:37.482Z,0
2018-11-11T00:56:47.440Z,0
2018-11-11T00:57:57.135Z,0
2018-11-11T00:59:06.823Z,0
2018-11-11T01:00:16.772Z,0
2018-11-11T01:01:26.489Z,0
2018-11-11T01:02:36.165Z,0
2018-11-11T01:03:45.336Z,0
2018-11-11T01:04:55.288Z,0
2018-11-11T01:06:04.984Z,0
2018-11-11T01:07:13.897Z,0
2018-11-11T01:08:23.835Z,0
2018-11-11T01:09:33.266Z,0
2018-11-11T01:10:43.211Z,0
2018-11-11T01:11:53.212Z,0
2018-11-11T01:13:02.637Z,0
2018-11-11T01:14:12.065Z,0
2018-11-11T01:15:22.010Z,0
2018-11-11T01:16:31.699Z,0
2018-11-11T01:17:41.381Z,0
2018-11-11T01:18:50.812Z,0
2018-11-11T01:20:00.763Z,0
2018-11-11T01:21:10.196Z,0
2018-11-11T01:22:19.878Z,0
2018-11-11T01:23:29.839Z,0
2018-11-11T01:24:39.299Z,0
2018-11-11T01:25:48.750Z,0
2018-11-11T01:26:58.722Z,0
2018-11-11T01:28:08.149Z,0
2018-11-11T01:29:18.151Z,0
2018-11-11T01:30:27.581Z,0
2018-11-11T01:31:37.275Z,0
2018-11-11T01:32:47.233Z,0
2018-11-11T01:33:57.193Z,0
2018-11-11T01:35:06.887Z,0
2018-11-11T01:36:16.331Z,0
2018-11-11T01:37:26.028Z,0
2018-11-11T01:38:36.223Z,0
2018-11-11T01:39:45.984Z,0
2018-11-11T01:40:55.411Z,0
2018-11-11T01:42:05.105Z,0
2018-11-11T01:43:14.802Z,0
2018-11-11T01:44:24.734Z,0
2018-11-11T01:45:34.681Z,0
2018-11-11T01:46:44.423Z,0
2018-11-11T01:47:54.373Z,0
2018-11-11T01:49:04.075Z,0
2018-11-11T01:50:14.031Z,0
2018-11-11T01:51:23.720Z,0
2018-11-11T01:52:32.896Z,0
2018-11-11T01:53:42.593Z,0
2018-11-11T01:54:52.548Z,0
2018-11-11T01:56:02.247Z,0
2018-11-11T01:57:12.216Z,0
2018-11-11T01:58:21.905Z,0
2018-11-11T01:59:31.846Z,0
2018-11-11T02:00:41.558Z,0
2018-11-11T02:01:51.265Z,0
2018-11-11T02:03:00.182Z,0
2018-11-11T02:04:09.607Z,0
2018-11-11T02:05:19.305Z,0
2018-11-11T02:06:28.986Z,0
2018-11-11T02:07:39.088Z,0
2018-11-11T02:08:49.046Z,0
2018-11-11T02:09:59.590Z,0
2018-11-11T02:11:09.348Z,0
2018-11-11T02:12:19.050Z,0
2018-11-11T02:13:29.004Z,0
2018-11-11T02:14:38.959Z,0
2018-11-11T02:15:48.653Z,0
2018-11-11T02:16:58.609Z,0
2018-11-11T02:18:08.576Z,0
2018-11-11T02:19:18.260Z,0
2018-11-11T02:20:27.949Z,0
2018-11-11T02:21:37.876Z,0
2018-11-11T02:22:47.626Z,0
2018-11-11T02:23:57.327Z,0
2018-11-11T02:25:07.018Z,0
2018-11-11T02:26:16.723Z,0
2018-11-11T02:27:26.664Z,0
2018-11-11T02:28:36.603Z,0
2018-11-11T02:29:46.555Z,0
2018-11-11T02:30:55.998Z,0
2018-11-11T02:32:05.948Z,0
2018-11-11T02:33:15.370Z,0
2018-11-11T02:34:25.059Z,0
2018-11-11T02:35:34.747Z,0
2018-11-11T02:36:44.694Z,0
2018-11-11T02:37:54.880Z,0
2018-11-11T02:39:04.568Z,0
2018-11-11T02:40:14.269Z,0
2018-11-11T02:41:24.203Z,0
2018-11-11T02:42:33.635Z,0
2018-11-11T02:43:43.056Z,0
2018-11-11T02:44:52.997Z,0
2018-11-11T02:46:02.962Z,0
2018-11-11T02:47:12.651Z,0
2018-11-11T02:48:22.603Z,0
2018-11-11T02:49:32.010Z,0
2018-11-11T02:50:41.952Z,0
2018-11-11T02:51:51.679Z,0
2018-11-11T02:53:01.348Z,0
2018-11-11T02:54:11.040Z,0
2018-11-11T02:55:20.764Z,0
2018-11-11T02:56:30.722Z,0
2018-11-11T02:57:39.887Z,0
2018-11-11T02:58:49.871Z,0
2018-11-11T02:59:59.814Z,0
2018-11-11T03:01:08.980Z,0
2018-11-11T03:02:18.951Z,0
2018-11-11T03:03:28.381Z,0
2018-11-11T03:04:38.941Z,0
2018-11-11T03:05:48.653Z,0
2018-11-11T03:06:58.343Z,0
2018-11-11T03:08:08.045Z,0
2018-11-11T03:09:17.493Z,0
2018-11-11T03:10:26.954Z,0
2018-11-11T03:11:36.642Z,0
2018-11-11T03:12:46.084Z,0
2018-11-11T03:13:55.802Z,0
2018-11-11T03:15:05.743Z,0
2018-11-11T03:16:15.696Z,0
2018-11-11T03:17:25.139Z,0
2018-11-11T03:18:34.575Z,0
2018-11-11T03:19:44.008Z,0
2018-11-11T03:20:53.946Z,0
2018-11-11T03:22:03.908Z,0
2018-11-11T03:23:13.828Z,0
2018-11-11T03:24:23.271Z,0
2018-11-11T03:25:33.226Z,0
2018-11-11T03:26:43.201Z,0
2018-11-11T03:27:53.158Z,0
2018-11-11T03:29:02.583Z,0
2018-11-11T03:30:12.283Z,0
2018-11-11T03:31:21.724Z,0
2018-11-11T03:32:31.437Z,0
2018-11-11T03:33:41.416Z,0
2018-11-11T03:34:51.100Z,0
2018-11-11T03:36:01.058Z,0
2018-11-11T03:37:10.750Z,0
2018-11-11T03:38:20.739Z,0
2018-11-11T03:39:30.680Z,0
2018-11-11T03:40:40.386Z,0
2018-11-11T03:41:50.078Z,0
2018-11-11T03:43:00.034Z,0
2018-11-11T03:44:09.989Z,0
2018-11-11T03:45:19.193Z,0
2018-11-11T03:46:28.925Z,0
2018-11-11T03:47:38.622Z,0
2018-11-11T03:48:47.794Z,0
2018-11-11T03:49:57.499Z,0
2018-11-11T03:51:07.687Z,0
2018-11-11T03:52:17.626Z,0
2018-11-11T03:53:27.580Z,0
2018-11-11T03:54:36.754Z,0
2018-11-11T03:55:46.701Z,0
2018-11-11T03:56:56.650Z,0
2018-11-11T03:58:06.614Z,0
2018-11-11T03:59:16.345Z,0
2018-11-11T04:00:26.329Z,0
2018-11-11T04:01:36.290Z,0
2018-11-11T04:02:46.300Z,0
2018-11-11T04:03:55.991Z,0
2018-11-11T04:05:05.444Z,0
2018-11-11T04:06:15.412Z,0
2018-11-11T04:07:25.094Z,0
2018-11-11T04:08:34.773Z,0
2018-11-11T04:09:44.742Z,0
2018-11-11T04:10:54.695Z,0
2018-11-11T04:12:04.657Z,0
2018-11-11T04:13:14.393Z,0
2018-11-11T04:14:24.319Z,0
2018-11-11T04:15:34.015Z,0
2018-11-11T04:16:43.961Z,0
2018-11-11T04:17:53.392Z,0
2018-11-11T04:19:03.341Z,0
2018-11-11T04:20:13.332Z,0
2018-11-11T04:21:22.770Z,0
2018-11-11T04:22:32.722Z,0
2018-11-11T04:23:42.664Z,0
2018-11-11T04:24:52.094Z,0
2018-11-11T04:26:01.791Z,0
2018-11-11T04:27:11.487Z,0
2018-11-11T04:28:20.922Z,0
2018-11-11T04:29:30.861Z,0
2018-11-11T04:30:40.551Z,0
2018-11-11T04:31:49.987Z,0
2018-11-11T04:32:59.676Z,0
2018-11-11T04:34:09.103Z,0
2018-11-11T04:35:19.296Z,0
2018-11-11T04:36:28.736Z,0
2018-11-11T04:37:38.405Z,0
2018-11-11T04:38:48.100Z,0
2018-11-11T04:39:58.038Z,0
2018-11-11T04:41:07.704Z,0
2018-11-11T04:42:17.404Z,0
2018-11-11T04:43:27.092Z,0
2018-11-11T04:44:36.790Z,0
2018-11-11T04:45:46.749Z,0
2018-11-11T04:46:56.453Z,0
2018-11-11T04:48:06.166Z,0
2018-11-11T04:49:16.107Z,0
2018-11-11T04:50:25.806Z,0
2018-11-11T04:51:35.490Z,0
2018-11-11T04:52:44.941Z,0
2018-11-11T04:53:54.367Z,0
2018-11-11T04:55:04.326Z,0
2018-11-11T04:56:14.046Z,0
2018-11-11T04:57:23.476Z,0
2018-11-11T04:58:33.414Z,0
2018-11-11T04:59:42.841Z,0
2018-11-11T05:00:53.007Z,0
2018-11-11T05:02:02.483Z,0
2018-11-11T05:03:11.928Z,0
2018-11-11T05:04:21.620Z,0
2018-11-11T05:05:31.574Z,0
2018-11-11T05:06:41.514Z,0
2018-11-11T05:07:51.199Z,0
2018-11-11T05:09:01.152Z,0
2018-11-11T05:10:10.572Z,0
2018-11-11T05:11:19.737Z,0
2018-11-11T05:12:29.691Z,0
2018-11-11T05:13:39.370Z,0
2018-11-11T05:14:48.804Z,0
2018-11-11T05:15:58.761Z,0
2018-11-11T05:17:08.699Z,0
2018-11-11T05:18:18.165Z,0
2018-11-11T05:19:27.332Z,0
2018-11-11T05:20:37.034Z,0
2018-11-11T05:21:47.085Z,0
2018-11-11T05:22:57.090Z,0
2018-11-11T05:24:06.526Z,0
2018-11-11T05:25:16.468Z,0
2018-11-11T05:26:26.392Z,0
2018-11-11T05:27:35.817Z,0
2018-11-11T05:28:45.811Z,0
2018-11-11T05:29:55.517Z,0
2018-11-11T05:31:05.805Z,0
2018-11-11T05:32:15.753Z,0
2018-11-11T05:33:25.448Z,0
2018-11-11T05:34:35.138Z,0
2018-11-11T05:35:45.074Z,0
2018-11-11T05:36:54.497Z,0
2018-11-11T05:38:04.448Z,0
2018-11-11T05:39:13.892Z,0
2018-11-11T05:40:23.824Z,0
2018-11-11T05:41:33.522Z,0
2018-11-11T05:42:43.201Z,0
2018-11-11T05:43:53.498Z,0
2018-11-11T05:45:02.928Z,0
2018-11-11T05:46:12.635Z,0
2018-11-11T05:47:22.327Z,0
2018-11-11T05:48:32.261Z,0
2018-11-11T05:49:42.198Z,0
2018-11-11T05:50:52.140Z,0
2018-11-11T05:52:02.100Z,0
2018-11-11T05:53:11.785Z,0
2018-11-11T05:54:21.215Z,0
2018-11-11T05:55:30.903Z,0
2018-11-11T05:56:40.344Z,0
2018-11-11T05:57:50.029Z,0
2018-11-11T05:58:59.718Z,0
2018-11-11T06:00:09.394Z,0
2018-11-11T06:01:19.123Z,0
2018-11-11T06:02:28.770Z,0
2018-11-11T06:03:38.474Z,0
2018-11-11T06:04:48.179Z,0
2018-11-11T06:05:57.590Z,0
2018-11-11T06:07:07.532Z,0
2018-11-11T06:08:17.485Z,0
2018-11-11T06:09:26.925Z,0
2018-11-11T06:10:36.097Z,0
2018-11-11T06:11:46.043Z,0
2018-11-11T06:12:55.741Z,5
2018-11-11T06:14:05.429Z,5
2018-11-11T06:15:14.851Z,5
2018-11-11T06:16:24.534Z,5
2018-11-11T06:17:34.476Z,10
2018-11-11T06:18:44.161Z,10
2018-11-11T06:19:54.098Z,10
2018-11-11T06:21:04.040Z,10
2018-11-11T06:22:13.992Z,10
2018-11-11T06:23:23.669Z,10
2018-11-11T06:24:33.356Z,15
2018-11-11T06:25:43.070Z,15
2018-11-11T06:26:52.764Z,15
2018-11-11T06:28:02.718Z,20
2018-11-11T06:29:12.662Z,20
2018-11-11T06:30:22.362Z,20
2018-11-11T06:31:32.309Z,20
2018-11-11T06:32:41.803Z,20
2018-11-11T06:33:51.555Z,20
2018-11-11T06:35:01.009Z,20
2018-11-11T06:36:10.703Z,25
2018-11-11T06:37:20.667Z,25
2018-11-11T06:38:30.098Z,25
2018-11-11T06:39:39.775Z,25
2018-11-11T06:40:49.722Z,25
2018-11-11T06:41:59.409Z,25
2018-11-11T06:43:09.368Z,25
2018-11-11T06:44:19.053Z,25
2018-11-11T06:45:28.736Z,20
2018-11-11T06:46:38.166Z,20
2018-11-11T06:47:47.895Z,20
2018-11-11T06:48:57.335Z,20
2018-11-11T06:50:07.018Z,20
2018-11-11T06:51:16.711Z,20
2018-11-11T06:52:26.717Z,25
2018-11-11T06:53:36.398Z,25
2018-11-11T06:54:46.351Z,25
2018-11-11T06:55:56.070Z,30
2018-11-11T06:57:05.762Z,30
2018-11-11T06:58:16.199Z,35
2018-11-11T06:59:25.882Z,35
2018-11-11T07:00:35.321Z,40
2018-11-11T07:01:44.499Z,40
2018-11-11T07:02:53.933Z,40
2018-11-11T07:04:04.024Z,40
2018-11-11T07:05:13.958Z,40
2018-11-11T07:06:23.661Z,40
2018-11-11T07:07:34.098Z,40
2018-11-11T07:08:43.847Z,40
2018-11-11T07:09:53.281Z,40
2018-11-11T07:11:03.245Z,40
2018-11-11T07:12:13.196Z,45
2018-11-11T07:13:23.155Z,45
2018-11-11T07:14:32.843Z,50
2018-11-11T07:15:42.546Z,50
2018-11-11T07:16:52.251Z,50
2018-11-11T07:18:01.679Z,50
2018-11-11T07:19:11.132Z,45
2018-11-11T07:20:20.831Z,45
2018-11-11T07:21:30.514Z,45
2018-11-11T07:22:40.200Z,40
2018-11-11T07:23:50.697Z,40
2018-11-11T07:25:00.119Z,35
2018-11-11T07:26:09.530Z,35
2018-11-11T07:27:18.967Z,35
2018-11-11T07:28:28.928Z,35
2018-11-11T07:29:38.354Z,40
2018-11-11T07:30:48.050Z,40
2018-11-11T07:31:57.748Z,40
2018-11-11T07:33:07.189Z,45
2018-11-11T07:34:16.622Z,45
2018-11-11T07:35:26.569Z,45
2018-11-11T07:36:36.018Z,50
2018-11-11T07:37:45.220Z,50
2018-11-11T07:38:54.669Z,50
2018-11-11T07:40:04.352Z,50
2018-11-11T07:41:14.297Z,50
2018-11-11T07:42:24.303Z,50
2018-11-11T07:43:34.045Z,55
2018-11-11T07:44:44.039Z,55
2018-11-11T07:45:53.738Z,60
2018-11-11T07:47:03.450Z,60
2018-11-11T07:48:13.498Z,65
2018-11-11T07:49:23.446Z,70
2018-11-11T07:50:33.128Z,70
2018-11-11T07:51:42.809Z,70
2018-11-11T07:52:52.773Z,75
2018-11-11T07:54:02.462Z,65
2018-11-11T07:55:13.450Z,65
2018-11-11T07:56:23.454Z,65
2018-11-11T07:57:32.889Z,65
2018-11-11T07:58:42.751Z,65
2018-11-11T07:59:52.697Z,70
2018-11-11T08:01:02.384Z,75
2018-11-11T08:02:12.870Z,75
2018-11-11T08:03:22.910Z,80
2018-11-11T08:04:32.592Z,85
2018-11-11T08:05:42.531Z,90
2018-11-11T08:06:51.961Z,90
2018-11-11T08:08:01.661Z,95
2018-11-11T08:09:11.630Z,95
2018-11-11T08:10:21.572Z,100
2018-11-11T08:11:30.753Z,100
2018-11-11T08:12:40.765Z,100
2018-11-11T08:13:50.189Z,105
2018-11-11T08:14:59.616Z,110
2018-11-11T08:16:09.582Z,115
2018-11-11T08:17:19.526Z,120
2018-11-11T08:18:29.468Z,120
2018-11-11T08:19:39.430Z,125
2018-11-11T08:20:49.120Z,120
2018-11-11T08:21:59.313Z,115
2018-11-11T08:23:09.256Z,110
2018-11-11T08:24:19.206Z,105
2018-11-11T08:25:29.526Z,100
2018-11-11T08:26:39.581Z,100
2018-11-11T08:27:49.530Z,95
2018-11-11T08:28:59.234Z,95
2018-11-11T08:30:08.932Z,95
2018-11-11T08:31:18.364Z,100
2018-11-11T08:32:29.026Z,105
2018-11-11T08:33:39.201Z,115
2018-11-11T08:34:48.905Z,120
2018-11-11T08:35:58.868Z,130
2018-11-11T08:37:08.826Z,135
2018-11-11T08:38:18.779Z,135
2018-11-11T08:39:28.466Z,135
2018-11-11T08:40:38.901Z,145
2018-11-11T08:41:48.954Z,165
2018-11-11T08:42:58.922Z,180
2018-11-11T08:44:08.102Z,185
2018-11-11T08:45:17.538Z,190
2018-11-11T08:46:27.498Z,195
2018-11-11T08:47:36.924Z,185
2018-11-11T08:48:46.868Z,185
2018-11-11T08:49:56.830Z,190
2018-11-11T08:51:06.542Z,195
2018-11-11T08:52:16.208Z,200
2018-11-11T08:53:26.168Z,200
2018-11-11T08:54:35.850Z,195
2018-11-11T08:55:45.788Z,190
2018-11-11T08:56:55.756Z,190
2018-11-11T08:58:06.241Z,195
2018-11-11T08:59:15.718Z,205
2018-11-11T09:00:25.664Z,215
2018-11-11T09:01:35.612Z,215
2018-11-11T09:02:45.574Z,215
2018-11-11T09:03:55.526Z,210
2018-11-11T09:05:05.358Z,200
2018-11-11T09:06:15.320Z,195
2018-11-11T09:07:25.000Z,190
2018-11-11T09:08:34.952Z,180
2018-11-11T09:09:44.645Z,170
2018-11-11T09:10:53.833Z,165
2018-11-11T09:12:03.785Z,170
2018-11-11T09:13:13.228Z,170
2018-11-11T09:14:22.654Z,165
2018-11-11T09:15:32.354Z,160
2018-11-11T09:16:42.097Z,145
2018-11-11T09:17:51.785Z,140
2018-11-11T09:19:01.740Z,135
2018-11-11T09:20:11.694Z,125
2018-11-11T09:21:21.968Z,125
2018-11-11T09:22:31.681Z,140
2018-11-11T09:23:41.554Z,170
2018-11-11T09:24:51.552Z,205
2018-11-11T09:26:01.021Z,230
2018-11-11T09:27:10.473Z,240
2018-11-11T09:28:19.923Z,230
2018-11-11T09:29:29.247Z,220
2018-11-11T09:30:38.978Z,200
2018-11-11T09:31:48.698Z,185
2018-11-11T09:32:58.650Z,165
2018-11-11T09:34:08.638Z,150
2018-11-11T09:35:18.986Z,140
2018-11-11T09:36:28.439Z,130
2018-11-11T09:37:38.140Z,130
2018-11-11T09:38:47.912Z,145
2018-11-11T09:39:57.895Z,165
2018-11-11T09:41:07.848Z,190
2018-11-11T09:42:17.831Z,215
2018-11-11T09:43:27.795Z,225
2018-11-11T09:44:37.497Z,215
2018-11-11T09:45:46.936Z,205
2018-11-11T09:46:56.629Z,195
2018-11-11T09:48:07.189Z,185
2018-11-11T09:49:16.631Z,170
2018-11-11T09:50:25.815Z,160
2018-11-11T09:51:35.775Z,155
2018-11-11T09:52:46.280Z,145
2018-11-11T09:53:56.253Z,145
2018-11-11T09:55:05.958Z,145
2018-11-11T09:56:15.957Z,140
2018-11-11T09:57:25.125Z,135
2018-11-11T09:58:35.341Z,130
2018-11-11T09:59:45.659Z,120
2018-11-11T10:00:55.706Z,120
2018-11-11T10:02:05.143Z,120
2018-11-11T10:03:15.092Z,125
2018-11-11T10:04:24.617Z,130
2018-11-11T10:05:34.025Z,135
2018-11-11T10:06:44.955Z,135
2018-11-11T10:07:54.688Z,130
2018-11-11T10:09:04.381Z,130
2018-11-11T10:10:14.071Z,130
2018-11-11T10:11:24.028Z,125
2018-11-11T10:12:34.165Z,125
2018-11-11T10:13:43.964Z,130
2018-11-11T10:14:53.675Z,135
2018-11-11T10:16:03.361Z,145
2018-11-11T10:17:13.058Z,150
2018-11-11T10:18:22.500Z,155
2018-11-11T10:19:32.188Z,155
2018-11-11T10:20:41.743Z,155
2018-11-11T10:21:51.696Z,160
2018-11-11T10:23:00.879Z,165
2018-11-11T10:24:10.598Z,185
2018-11-11T10:25:20.314Z,205
2018-11-11T10:26:30.011Z,220
2018-11-11T10:27:40.191Z,215
2018-11-11T10:28:49.877Z,190
2018-11-11T10:29:59.571Z,160
2018-11-11T10:31:09.534Z,140
2018-11-11T10:32:19.492Z,135
2018-11-11T10:33:29.907Z,130
2018-11-11T10:34:39.874Z,120
2018-11-11T10:35:49.569Z,115
2018-11-11T10:36:59.511Z,105
2018-11-11T10:38:09.211Z,100
2018-11-11T10:39:19.800Z,95
2018-11-11T10:40:29.563Z,90
2018-11-11T10:41:39.001Z,85
2018-11-11T10:42:48.441Z,85
2018-11-11T10:43:58.384Z,80
2018-11-11T10:45:08.346Z,75
2018-11-11T10:46:18.044Z,75
2018-11-11T10:47:27.742Z,75
2018-11-11T10:48:37.218Z,80
2018-11-11T10:49:47.069Z,85
2018-11-11T10:50:57.031Z,90
2018-11-11T10:52:06.725Z,95
2018-11-11T10:53:16.151Z,95
2018-11-11T10:54:26.144Z,95
2018-11-11T10:55:36.195Z,90
2018-11-11T10:56:45.896Z,95
2018-11-11T10:57:55.603Z,100
2018-11-11T10:59:05.038Z,105
2018-11-11T11:00:15.461Z,100
2018-11-11T11:01:25.482Z,100
2018-11-11T11:02:35.185Z,100
2018-11-11T11:03:44.623Z,100
2018-11-11T11:04:54.317Z,100
2018-11-11T11:06:04.627Z,95
2018-11-11T11:07:14.031Z,95
2018-11-11T11:08:23.725Z,95
2018-11-11T11:09:33.157Z,95
2018-11-11T11:10:42.863Z,100
2018-11-11T11:11:52.633Z,105
2018-11-11T11:13:02.381Z,110
2018-11-11T11:14:12.468Z,110
2018-11-11T11:15:22.420Z,110
2018-11-11T11:16:32.383Z,100
2018-11-11T11:17:42.340Z,105
2018-11-11T11:18:52.030Z,110
2018-11-11T11:20:01.469Z,105
2018-11-11T11:21:11.409Z,105
2018-11-11T11:22:21.095Z,105
2018-11-11T11:23:30.801Z,110
2018-11-11T11:24:40.746Z,115
2018-11-11T11:25:50.990Z,125
2018-11-11T11:27:00.799Z,140
2018-11-11T11:28:10.755Z,150
2018-11-11T11:29:20.721Z,155
2018-11-11T11:30:30.673Z,155
2018-11-11T11:31:41.478Z,140
2018-11-11T11:32:51.927Z,120
2018-11-11T11:34:01.426Z,110
2018-11-11T11:35:11.509Z,105
2018-11-11T11:36:21.264Z,100
2018-11-11T11:37:30.954Z,90
2018-11-11T11:38:40.896Z,75
2018-11-11T11:39:50.598Z,70
2018-11-11T11:41:00.560Z,60
2018-11-11T11:42:10.530Z,55
2018-11-11T11:43:19.978Z,50
2018-11-11T11:44:29.713Z,45
2018-11-11T11:45:39.692Z,45
2018-11-11T11:46:49.640Z,50
2018-11-11T11:47:59.349Z,50
2018-11-11T11:49:09.049Z,60
2018-11-11T11:50:18.310Z,75
2018-11-11T11:51:28.011Z,90
2018-11-11T11:52:37.776Z,90
2018-11-11T11:53:47.516Z,85
2018-11-11T11:54:57.211Z,75
2018-11-11T11:56:06.912Z,70
2018-11-11T11:57:16.880Z,65
2018-11-11T11:58:26.840Z,55
2018-11-11T11:59:36.793Z,50
2018-11-11T12:00:46.493Z,55
2018-11-11T12:01:56.028Z,55
2018-11-11T12:03:05.983Z,60
2018-11-11T12:04:15.446Z,60
2018-11-11T12:05:25.141Z,65
2018-11-11T12:06:34.603Z,60
2018-11-11T12:07:44.567Z,55
2018-11-11T12:08:54.572Z,55
2018-11-11T12:10:03.967Z,50
2018-11-11T12:11:13.936Z,50
2018-11-11T12:12:23.646Z,50
2018-11-11T12:13:33.620Z,50
2018-11-11T12:14:43.310Z,50
2018-11-11T12:15:53.264Z,50
2018-11-11T12:17:03.183Z,50
2018-11-11T12:18:13.155Z,45
2018-11-11T12:19:23.115Z,50
2018-11-11T12:20:33.083Z,50
2018-11-11T12:21:42.771Z,60
2018-11-11T12:22:52.209Z,70
2018-11-11T12:24:01.669Z,75
2018-11-11T12:25:11.390Z,85
2018-11-11T12:26:21.127Z,85
2018-11-11T12:27:30.846Z,95
2018-11-11T12:28:40.013Z,115
2018-11-11T12:29:49.711Z,150
2018-11-11T12:31:00.427Z,240
2018-11-11T12:32:10.794Z,345
2018-11-11T12:33:20.498Z,450
2018-11-11T12:34:30.452Z,405
2018-11-11T12:35:39.870Z,420
2018-11-11T12:36:49.033Z,455
2018-11-11T12:37:58.745Z,480
2018-11-11T12:39:09.206Z,490
2018-11-11T12:40:20.018Z,475
2018-11-11T12:41:29.129Z,445
2018-11-11T12:42:38.844Z,390
2018-11-11T12:43:48.538Z,345
2018-11-11T12:44:59.260Z,315
2018-11-11T12:46:08.969Z,305
2018-11-11T12:47:18.778Z,330
2018-11-11T12:48:28.481Z,560
2018-11-11T12:49:38.176Z,300
2018-11-11T12:50:48.148Z,285
2018-11-11T12:51:58.113Z,290
2018-11-11T12:53:07.811Z,300
2018-11-11T12:54:17.528Z,315
2018-11-11T12:55:27.832Z,350
2018-11-11T12:56:37.698Z,390
2018-11-11T12:57:47.411Z,430
2018-11-11T12:58:56.595Z,475
2018-11-11T13:00:06.554Z,710
2018-11-11T13:01:16.258Z,690
2018-11-11T13:02:26.208Z,950
2018-11-11T13:03:36.183Z,900
2018-11-11T13:04:46.187Z,1630
2018-11-11T13:05:55.934Z,1420
2018-11-11T13:07:05.659Z,1735
2018-11-11T13:08:15.246Z,1895
2018-11-11T13:09:24.689Z,1875
2018-11-11T13:10:34.139Z,1880
2018-11-11T13:11:44.213Z,1860
2018-11-11T13:12:53.724Z,1905
2018-11-11T13:14:04.021Z,1945
2018-11-11T13:15:13.720Z,1830
2018-11-11T13:16:23.147Z,1815
2018-11-11T13:17:32.351Z,1800
2018-11-11T13:18:42.331Z,1735
2018-11-11T13:19:52.222Z,1765
2018-11-11T13:21:02.067Z,1755
2018-11-11T13:22:12.619Z,1735
2018-11-11T13:23:22.654Z,1690
2018-11-11T13:24:32.333Z,1590
2018-11-11T13:25:42.291Z,1545
2018-11-11T13:26:51.994Z,1540
2018-11-11T13:28:01.419Z,1495
2018-11-11T13:29:11.105Z,1505
2018-11-11T13:30:20.538Z,1485
2018-11-11T13:31:30.230Z,1475
2018-11-11T13:32:39.426Z,1470
2018-11-11T13:33:49.128Z,1480
2018-11-11T13:34:59.097Z,1465
2018-11-11T13:36:09.063Z,1460
2018-11-11T13:37:18.777Z,1435
2018-11-11T13:38:28.146Z,1360
2018-11-11T13:39:37.923Z,1310
2018-11-11T13:40:47.631Z,1320
2018-11-11T13:41:57.102Z,1235
2018-11-11T13:43:06.791Z,1235
2018-11-11T13:44:16.289Z,1255
2018-11-11T13:45:25.988Z,1280
2018-11-11T13:46:36.671Z,1265
2018-11-11T13:47:46.491Z,1275
2018-11-11T13:48:56.435Z,1265
2018-11-11T13:50:05.880Z,1255
2018-11-11T13:51:15.342Z,1240
2018-11-11T13:52:24.675Z,1185
2018-11-11T13:53:34.733Z,1150
2018-11-11T13:54:44.176Z,1140
2018-11-11T13:55:54.266Z,1145
2018-11-11T13:57:04.297Z,1155
2018-11-11T13:58:14.258Z,1135
2018-11-11T13:59:23.454Z,1115
2018-11-11T14:00:33.422Z,1115
2018-11-11T14:01:43.790Z,1065
2018-11-11T14:02:53.286Z,1005
2018-11-11T14:04:02.993Z,630
2018-11-11T14:05:12.961Z,650
2018-11-11T14:06:22.155Z,945
2018-11-11T14:07:31.863Z,945
2018-11-11T14:08:41.568Z,935
2018-11-11T14:09:51.006Z,950
2018-11-11T14:11:00.735Z,945
2018-11-11T14:12:10.476Z,915
2018-11-11T14:13:20.194Z,855
2018-11-11T14:14:30.158Z,845
2018-11-11T14:15:39.593Z,850
2018-11-11T14:16:49.553Z,830
2018-11-11T14:17:59.651Z,815
2018-11-11T14:19:12.053Z,800
2018-11-11T14:20:21.447Z,770
2018-11-11T14:21:31.419Z,740
2018-11-11T14:22:41.364Z,740
2018-11-11T14:23:51.431Z,720
2018-11-11T14:25:00.861Z,695
2018-11-11T14:26:11.106Z,640
2018-11-11T14:27:20.356Z,605
2018-11-11T14:28:30.327Z,595
2018-11-11T14:29:39.765Z,605
2018-11-11T14:30:48.931Z,590
2018-11-11T14:31:59.150Z,570
2018-11-11T14:33:09.111Z,550
2018-11-11T14:34:18.853Z,530
2018-11-11T14:35:28.331Z,495
2018-11-11T14:36:37.772Z,480
2018-11-11T14:37:47.205Z,485
2018-11-11T14:38:56.920Z,465
2018-11-11T14:40:07.400Z,435
2018-11-11T14:41:16.978Z,405
2018-11-11T14:42:26.684Z,380
2018-11-11T14:43:36.187Z,320
2018-11-11T14:44:46.138Z,235
2018-11-11T14:45:55.627Z,155
2018-11-11T14:47:05.323Z,125
2018-11-11T14:48:15.033Z,110
2018-11-11T14:49:24.737Z,105
2018-11-11T14:50:34.439Z,95
2018-11-11T14:51:44.267Z,85
2018-11-11T14:52:54.388Z,80
2018-11-11T14:54:04.357Z,75
2018-11-11T14:55:14.127Z,70
2018-11-11T14:56:24.092Z,65
2018-11-11T14:57:33.797Z,60
2018-11-11T14:58:43.824Z,60
2018-11-11T14:59:53.335Z,55
2018-11-11T15:01:03.321Z,50
2018-11-11T15:02:12.869Z,50
2018-11-11T15:03:22.594Z,45
2018-11-11T15:04:32.043Z,45
2018-11-11T15:05:41.489Z,45
2018-11-11T15:06:50.930Z,40
2018-11-11T15:08:01.259Z,40
2018-11-11T15:09:11.021Z,35
2018-11-11T15:10:20.727Z,35
2018-11-11T15:11:30.447Z,30
2018-11-11T15:12:40.140Z,30
2018-11-11T15:13:49.583Z,30
2018-11-11T15:14:59.551Z,25
2018-11-11T15:16:09.550Z,25
2018-11-11T15:17:19.491Z,25
2018-11-11T15:18:29.205Z,20
2018-11-11T15:19:40.511Z,20
2018-11-11T15:20:51.228Z,15
2018-11-11T15:22:01.390Z,15
2018-11-11T15:23:10.834Z,15
2018-11-11T15:24:20.525Z,10
2018-11-11T15:25:31.114Z,10
2018-11-11T15:26:41.183Z,10
2018-11-11T15:27:50.605Z,10
2018-11-11T15:29:00.041Z,5
2018-11-11T15:30:09.773Z,5
2018-11-11T15:31:20.627Z,5
2018-11-11T15:32:30.455Z,5
2018-11-11T15:33:40.409Z,5
2018-11-11T15:34:50.361Z,5
2018-11-11T15:35:59.488Z,0
2018-11-11T15:37:09.529Z,0
2018-11-11T15:38:18.719Z,0
2018-11-11T15:39:28.418Z,0
2018-11-11T15:40:38.114Z,0
2018-11-11T15:41:48.237Z,0
2018-11-11T15:42:58.194Z,0
2018-11-11T15:44:07.895Z,0
2018-11-11T15:45:17.866Z,0
2018-11-11T15:46:27.818Z,0
2018-11-11T15:47:37.520Z,0
2018-11-11T15:48:47.078Z,0
2018-11-11T15:49:56.528Z,0
2018-11-11T15:51:06.226Z,0
2018-11-11T15:52:16.823Z,0
2018-11-11T15:53:26.617Z,0
2018-11-11T15:54:36.319Z,0
2018-11-11T15:55:45.772Z,0
2018-11-11T15:56:55.492Z,0
2018-11-11T15:58:05.187Z,0
2018-11-11T15:59:15.575Z,0
2018-11-11T16:00:25.372Z,0
2018-11-11T16:01:35.067Z,0
2018-11-11T16:02:45.035Z,0
2018-11-11T16:03:54.746Z,0
2018-11-11T16:05:04.697Z,0
2018-11-11T16:06:14.763Z,0
2018-11-11T16:07:24.468Z,0
2018-11-11T16:08:33.907Z,0
2018-11-11T16:09:43.902Z,0
2018-11-11T16:10:53.341Z,0
2018-11-11T16:12:03.058Z,0
2018-11-11T16:13:12.509Z,0
2018-11-11T16:14:22.437Z,0
2018-11-11T16:15:32.139Z,0
2018-11-11T16:16:41.838Z,0
2018-11-11T16:17:51.797Z,0
2018-11-11T16:19:01.774Z,0
2018-11-11T16:20:11.729Z,0
2018-11-11T16:21:21.496Z,0
2018-11-11T16:22:31.188Z,0
2018-11-11T16:23:41.337Z,0
2018-11-11T16:24:51.111Z,0
2018-11-11T16:26:00.801Z,0
2018-11-11T16:27:10.244Z,0
2018-11-11T16:28:19.963Z,0
2018-11-11T16:29:29.506Z,0
2018-11-11T16:30:39.496Z,0
2018-11-11T16:31:49.224Z,0
2018-11-11T16:32:59.166Z,0
2018-11-11T16:34:09.181Z,0
2018-11-11T16:35:18.887Z,0
2018-11-11T16:36:28.849Z,0
2018-11-11T16:37:38.886Z,0